Time;durP1;ratioP1;P1;durP2;ratioP2;P2;SDS_P1;SDS_P2;PMS_P1;PMS_P2;Temp;Humidity;BMP_temperature;BMP_pressure;BME280_temperature;BME280_humidity;BME280_pressure;Samples;Min_cycle;Max_cycle;Signal;HPM_P1;HPM_P2
2023/10/20 00:01:47;;;;;;;11.82;8.02;;;;;;;;;;5009359;28;20033;-67
2023/10/20 00:04:13;;;;;;;12.57;7.97;;;;;;;;;;5008318;28;20033;-69
2023/10/20 00:06:39;;;;;;;11.48;7.95;;;;;;;;;;5008889;28;20041;-70
2023/10/20 00:09:09;;;;;;;10.75;7.43;;;;;;;;;;5009292;28;20075;-68
2023/10/20 00:11:37;;;;;;;13.18;7.85;;;;;;;;;;5008970;28;20048;-71
2023/10/20 00:14:03;;;;;;;13.73;7.57;;;;;;;;;;5006579;28;20030;-69
2023/10/20 00:16:30;;;;;;;14.45;8.15;;;;;;;;;;5007471;28;20037;-68
2023/10/20 00:18:56;;;;;;;12.85;8.23;;;;;;;;;;5008106;28;20107;-69
2023/10/20 00:21:24;;;;;;;12.10;8.00;;;;;;;;;;5007769;28;20032;-67
2023/10/20 00:23:50;;;;;;;12.57;7.97;;;;;;;;;;5008247;28;20040;-69
2023/10/20 00:26:17;;;;;;;12.90;7.93;;;;;;;;;;5009010;28;20036;-68
2023/10/20 00:28:43;;;;;;;11.88;7.85;;;;;;;;;;5008080;28;20069;-69
2023/10/20 00:31:11;;;;;;;12.88;8.13;;;;;;;;;;5008280;28;20041;-70
2023/10/20 00:33:37;;;;;;;14.00;8.18;;;;;;;;;;5008185;28;20108;-69
2023/10/20 00:36:04;;;;;;;16.42;8.90;;;;;;;;;;5009730;28;20034;-67
2023/10/20 00:38:31;;;;;;;14.82;8.43;;;;;;;;;;5007993;28;20030;-69
2023/10/20 00:40:57;;;;;;;14.45;8.98;;;;;;;;;;5007694;28;20100;-67
2023/10/20 00:43:34;;;;;;;18.63;9.48;;;;;;;;;;5007437;28;20065;-71
2023/10/20 00:46:00;;;;;;;16.05;9.20;;;;;;;;;;5007725;28;20163;-70
2023/10/20 00:48:26;;;;;;;13.90;7.75;;;;;;;;;;5007896;28;20037;-69
2023/10/20 00:50:52;;;;;;;14.38;7.90;;;;;;;;;;5006600;28;20858;-68
2023/10/20 00:53:19;;;;;;;13.88;8.30;;;;;;;;;;5007535;28;20045;-70
2023/10/20 00:55:45;;;;;;;12.48;8.00;;;;;;;;;;5012389;28;20116;-70
2023/10/20 00:58:11;;;;;;;13.57;8.75;;;;;;;;;;5011916;28;20079;-70
2023/10/20 01:00:37;;;;;;;15.50;9.07;;;;;;;;;;5011832;28;20040;-66
2023/10/20 01:03:04;;;;;;;15.27;9.20;;;;;;;;;;5011511;28;20574;-69
2023/10/20 01:05:31;;;;;;;17.80;8.77;;;;;;;;;;5012759;28;20431;-69
2023/10/20 01:07:58;;;;;;;16.23;9.05;;;;;;;;;;5010436;28;20045;-69
2023/10/20 01:10:24;;;;;;;16.27;9.52;;;;;;;;;;5012385;28;20034;-70
2023/10/20 01:12:50;;;;;;;16.65;9.32;;;;;;;;;;5011937;28;20018;-69
2023/10/20 01:15:16;;;;;;;16.60;9.00;;;;;;;;;;5011686;28;20034;-70
2023/10/20 01:17:42;;;;;;;16.20;9.02;;;;;;;;;;5009415;28;20038;-70
2023/10/20 01:20:09;;;;;;;15.63;9.05;;;;;;;;;;5012098;28;20469;-70
2023/10/20 01:22:35;;;;;;;16.08;9.35;;;;;;;;;;5010680;28;20037;-67
2023/10/20 01:25:01;;;;;;;18.45;10.25;;;;;;;;;;5010631;28;20038;-69
2023/10/20 01:27:27;;;;;;;16.40;9.15;;;;;;;;;;5006529;28;20049;-68
2023/10/20 01:29:53;;;;;;;18.23;9.75;;;;;;;;;;5011589;28;20037;-69
2023/10/20 01:32:19;;;;;;;15.13;9.88;;;;;;;;;;5010606;28;20037;-68
2023/10/20 01:34:45;;;;;;;18.55;10.95;;;;;;;;;;5010268;28;20037;-69
2023/10/20 01:37:12;;;;;;;17.38;10.45;;;;;;;;;;5010975;28;20033;-69
2023/10/20 01:39:39;;;;;;;21.65;10.52;;;;;;;;;;5011593;28;20025;-69
2023/10/20 01:42:05;;;;;;;21.17;11.82;;;;;;;;;;5011589;28;20667;-71
2023/10/20 01:44:31;;;;;;;20.30;11.13;;;;;;;;;;5008987;28;20025;-68
2023/10/20 01:46:57;;;;;;;23.83;12.25;;;;;;;;;;5010353;28;20034;-68
2023/10/20 01:49:23;;;;;;;22.67;12.85;;;;;;;;;;5011828;28;20770;-69
2023/10/20 01:51:49;;;;;;;24.63;13.30;;;;;;;;;;5009179;28;20511;-68
2023/10/20 01:54:15;;;;;;;20.58;12.25;;;;;;;;;;5011731;28;20499;-70
2023/10/20 01:56:41;;;;;;;22.52;11.25;;;;;;;;;;5010509;28;20033;-69
2023/10/20 01:59:07;;;;;;;22.50;12.27;;;;;;;;;;5013115;28;20040;-68
2023/10/20 02:01:33;;;;;;;18.27;11.32;;;;;;;;;;5008551;28;20034;-69
2023/10/20 02:03:59;;;;;;;22.27;12.48;;;;;;;;;;5010056;28;20068;-68
2023/10/20 02:06:26;;;;;;;25.15;12.77;;;;;;;;;;5009894;28;20259;-70
2023/10/20 02:08:53;;;;;;;21.25;11.43;;;;;;;;;;5011355;28;20037;-70
2023/10/20 02:11:19;;;;;;;24.10;11.57;;;;;;;;;;5008845;28;20029;-69
2023/10/20 02:13:45;;;;;;;20.80;12.10;;;;;;;;;;5009648;28;20041;-68
2023/10/20 02:16:11;;;;;;;17.88;10.75;;;;;;;;;;5009597;28;20034;-69
2023/10/20 02:18:41;;;;;;;21.13;11.38;;;;;;;;;;5004197;28;20040;-68
2023/10/20 02:21:09;;;;;;;18.35;12.23;;;;;;;;;;5008028;28;20855;-70
2023/10/20 02:23:35;;;;;;;20.63;11.18;;;;;;;;;;5010439;28;20043;-70
2023/10/20 02:26:05;;;;;;;21.05;12.38;;;;;;;;;;5008372;28;20172;-68
2023/10/20 02:28:32;;;;;;;23.30;12.75;;;;;;;;;;5009978;28;20067;-71
2023/10/20 02:30:59;;;;;;;24.30;12.52;;;;;;;;;;5008625;28;20106;-70
2023/10/20 02:33:26;;;;;;;23.00;12.10;;;;;;;;;;5009514;28;20032;-70
2023/10/20 02:35:52;;;;;;;20.27;11.80;;;;;;;;;;5009066;28;20057;-71
2023/10/20 02:38:22;;;;;;;22.08;12.38;;;;;;;;;;5008978;28;20073;-71
2023/10/20 02:40:51;;;;;;;22.13;11.57;;;;;;;;;;5010449;28;20475;-67
2023/10/20 02:43:17;;;;;;;22.83;12.15;;;;;;;;;;5009562;28;20091;-70
2023/10/20 02:45:51;;;;;;;20.95;12.77;;;;;;;;;;5008670;28;20033;-70
2023/10/20 02:48:17;;;;;;;20.30;11.80;;;;;;;;;;5009428;28;20045;-70
2023/10/20 02:50:43;;;;;;;22.83;12.07;;;;;;;;;;5008422;28;20045;-69
2023/10/20 02:53:09;;;;;;;20.85;12.80;;;;;;;;;;5007482;28;21869;-71
2023/10/20 02:55:37;;;;;;;20.65;13.57;;;;;;;;;;5007547;28;20025;-70
2023/10/20 02:58:03;;;;;;;19.17;11.80;;;;;;;;;;5007914;28;20029;-70
2023/10/20 03:00:29;;;;;;;19.40;11.23;;;;;;;;;;5006786;28;20036;-71
2023/10/20 03:02:55;;;;;;;23.42;12.57;;;;;;;;;;5009616;28;20029;-68
2023/10/20 03:05:22;;;;;;;22.80;13.07;;;;;;;;;;5008180;28;20112;-70
2023/10/20 03:07:48;;;;;;;21.02;13.07;;;;;;;;;;5003375;28;20038;-70
2023/10/20 03:10:14;;;;;;;23.13;13.18;;;;;;;;;;5025890;28;20049;-71
2023/10/20 03:12:40;;;;;;;21.08;12.50;;;;;;;;;;5008986;28;20052;-68
2023/10/20 03:15:10;;;;;;;22.60;12.23;;;;;;;;;;5009765;28;20029;-70
2023/10/20 03:17:36;;;;;;;23.60;12.70;;;;;;;;;;5008435;28;20112;-70
2023/10/20 03:20:08;;;;;;;21.35;12.73;;;;;;;;;;5009430;28;20065;-70
2023/10/20 03:22:35;;;;;;;19.40;12.85;;;;;;;;;;5006831;28;20064;-71
2023/10/20 03:25:02;;;;;;;27.95;13.68;;;;;;;;;;5025820;28;20029;-69
2023/10/20 03:27:28;;;;;;;28.80;13.43;;;;;;;;;;5008259;28;20079;-70
2023/10/20 03:29:54;;;;;;;24.63;13.48;;;;;;;;;;5008176;28;20084;-69
2023/10/20 03:32:20;;;;;;;25.42;13.73;;;;;;;;;;5008606;28;20037;-70
2023/10/20 03:34:46;;;;;;;17.88;12.35;;;;;;;;;;5005585;28;20034;-68
2023/10/20 03:37:13;;;;;;;21.33;13.00;;;;;;;;;;5008652;28;20492;-70
2023/10/20 03:39:39;;;;;;;22.17;13.55;;;;;;;;;;5008781;28;20025;-70
2023/10/20 03:42:10;;;;;;;22.45;13.85;;;;;;;;;;5009054;28;20657;-67
2023/10/20 03:44:37;;;;;;;20.40;12.50;;;;;;;;;;5007591;28;20034;-70
2023/10/20 03:47:05;;;;;;;19.90;11.90;;;;;;;;;;5008952;28;20096;-70
2023/10/20 03:49:35;;;;;;;20.67;12.43;;;;;;;;;;5025392;28;20037;-71
2023/10/20 03:52:11;;;;;;;21.33;12.75;;;;;;;;;;5008484;28;20432;-71
2023/10/20 03:54:38;;;;;;;20.58;11.63;;;;;;;;;;5008627;28;20032;-71
2023/10/20 03:57:05;;;;;;;20.85;12.75;;;;;;;;;;5008203;28;20480;-70
2023/10/20 03:59:31;;;;;;;22.45;12.77;;;;;;;;;;5008597;28;20034;-70
2023/10/20 04:01:57;;;;;;;17.90;11.32;;;;;;;;;;5008851;28;20087;-70
2023/10/20 04:04:23;;;;;;;18.13;11.27;;;;;;;;;;5009654;28;20942;-72
2023/10/20 04:06:49;;;;;;;18.85;12.02;;;;;;;;;;5007660;28;20499;-69
2023/10/20 04:09:19;;;;;;;17.73;11.15;;;;;;;;;;5007869;28;20026;-72
2023/10/20 04:11:45;;;;;;;16.98;10.82;;;;;;;;;;5008763;28;20068;-71
2023/10/20 04:14:12;;;;;;;18.25;10.63;;;;;;;;;;5008781;28;20036;-70
2023/10/20 04:16:42;;;;;;;16.05;9.90;;;;;;;;;;5007603;28;20030;-72
2023/10/20 04:19:14;;;;;;;15.38;10.13;;;;;;;;;;5007862;28;20034;-70
2023/10/20 04:21:43;;;;;;;17.25;9.85;;;;;;;;;;5008580;28;20056;-70
2023/10/20 04:24:12;;;;;;;17.02;9.70;;;;;;;;;;5008916;28;20026;-69
2023/10/20 04:26:41;;;;;;;16.40;9.02;;;;;;;;;;5007360;28;20116;-73
2023/10/20 05:01:30;;;;;;;11.05;6.38;;;;;;;;;;5011088;28;20129;-69
2023/10/20 05:04:09;;;;;;;11.18;6.32;;;;;;;;;;5011297;28;20033;-72
2023/10/20 05:06:44;;;;;;;13.00;6.85;;;;;;;;;;5011201;28;20118;-71
2023/10/20 05:09:14;;;;;;;11.30;6.63;;;;;;;;;;5009475;28;20029;-64
2023/10/20 05:11:40;;;;;;;13.52;6.50;;;;;;;;;;5010259;28;20040;-67
2023/10/20 05:14:07;;;;;;;9.63;6.07;;;;;;;;;;5011396;28;20157;-72
2023/10/20 05:16:35;;;;;;;10.18;5.97;;;;;;;;;;5009755;28;20088;-63
2023/10/20 05:19:05;;;;;;;11.95;6.03;;;;;;;;;;5011059;28;20399;-71
2023/10/20 05:21:38;;;;;;;10.23;6.25;;;;;;;;;;5010077;28;20030;-71
2023/10/20 05:24:04;;;;;;;11.88;6.22;;;;;;;;;;5011588;28;21147;-69
2023/10/20 05:26:31;;;;;;;10.27;5.47;;;;;;;;;;5009689;28;20041;-71
2023/10/20 05:28:57;;;;;;;10.15;6.00;;;;;;;;;;5007586;28;20141;-69
2023/10/20 05:31:27;;;;;;;11.85;6.20;;;;;;;;;;5008733;28;20213;-72
2023/10/20 05:33:53;;;;;;;10.48;5.15;;;;;;;;;;5008064;28;20030;-68
2023/10/20 05:36:20;;;;;;;10.10;5.32;;;;;;;;;;5009772;28;20033;-75
2023/10/20 05:38:46;;;;;;;8.77;5.15;;;;;;;;;;5007788;28;20064;-73
2023/10/20 05:41:12;;;;;;;10.02;6.03;;;;;;;;;;5010845;28;20530;-73
2023/10/20 05:43:41;;;;;;;10.52;5.15;;;;;;;;;;5009075;28;20037;-71
2023/10/20 05:46:13;;;;;;;10.95;6.57;;;;;;;;;;5010849;28;20037;-67
2023/10/20 05:48:40;;;;;;;10.07;4.95;;;;;;;;;;5010786;28;20034;-72
2023/10/20 05:51:06;;;;;;;10.32;5.13;;;;;;;;;;5009911;28;20030;-71
2023/10/20 05:53:32;;;;;;;11.10;5.47;;;;;;;;;;5027069;28;20141;-74
2023/10/20 05:55:58;;;;;;;8.77;4.80;;;;;;;;;;5010525;28;20053;-72
2023/10/20 05:58:24;;;;;;;8.20;4.20;;;;;;;;;;5011131;28;20029;-73
2023/10/20 06:00:50;;;;;;;8.05;4.78;;;;;;;;;;5010467;28;20052;-70
2023/10/20 06:03:16;;;;;;;8.32;4.40;;;;;;;;;;5009651;28;20037;-71
2023/10/20 06:05:44;;;;;;;10.30;5.07;;;;;;;;;;5010282;28;20728;-74
2023/10/20 06:08:10;;;;;;;11.23;4.53;;;;;;;;;;5009746;28;20034;-74
2023/10/20 06:10:36;;;;;;;10.38;4.55;;;;;;;;;;5010659;28;20087;-72
2023/10/20 06:13:03;;;;;;;7.93;4.10;;;;;;;;;;5008640;28;20041;-74
2023/10/20 06:15:31;;;;;;;7.13;3.70;;;;;;;;;;5010718;28;20026;-73
2023/10/20 06:17:57;;;;;;;7.35;3.83;;;;;;;;;;5009790;28;20366;-70
2023/10/20 06:20:24;;;;;;;8.77;3.50;;;;;;;;;;5006959;28;20034;-70
2023/10/20 06:22:50;;;;;;;7.28;3.17;;;;;;;;;;5008917;28;20498;-74
2023/10/20 06:25:16;;;;;;;9.43;3.90;;;;;;;;;;5008598;28;20037;-73
2023/10/20 06:27:43;;;;;;;7.20;3.20;;;;;;;;;;5009091;28;20041;-71
2023/10/20 06:30:21;;;;;;;6.72;2.65;;;;;;;;;;5009623;28;20025;-72
2023/10/20 06:35:52;;;;;;;5.57;2.38;;;;;;;;;;5011662;28;20501;-71
2023/10/20 06:38:40;;;;;;;5.50;2.72;;;;;;;;;;5010494;28;20033;-65
2023/10/20 06:41:07;;;;;;;7.95;2.70;;;;;;;;;;5006845;28;20473;-75
2023/10/20 06:43:33;;;;;;;5.68;2.40;;;;;;;;;;5009638;28;20038;-71
2023/10/20 06:46:02;;;;;;;5.88;1.98;;;;;;;;;;5009010;28;20045;-70
2023/10/20 06:48:29;;;;;;;6.60;2.80;;;;;;;;;;5008039;28;20041;-71
2023/10/20 06:50:55;;;;;;;6.75;2.40;;;;;;;;;;5007708;28;20483;-74
2023/10/20 06:53:21;;;;;;;6.43;2.85;;;;;;;;;;5003929;28;21212;-74
2023/10/20 06:55:48;;;;;;;7.57;2.75;;;;;;;;;;5006834;28;20037;-72
2023/10/20 06:58:17;;;;;;;5.30;2.60;;;;;;;;;;5009373;28;20029;-68
2023/10/20 07:00:44;;;;;;;5.10;2.58;;;;;;;;;;5007872;28;20034;-74
2023/10/20 07:03:10;;;;;;;6.68;2.65;;;;;;;;;;5008461;28;20651;-72
2023/10/20 07:05:40;;;;;;;6.38;2.72;;;;;;;;;;5024161;28;20072;-74
2023/10/20 07:08:07;;;;;;;4.50;2.20;;;;;;;;;;5007801;28;20966;-72
2023/10/20 07:10:37;;;;;;;5.68;2.28;;;;;;;;;;5009314;28;20091;-74
2023/10/20 07:13:03;;;;;;;4.75;2.50;;;;;;;;;;5007829;28;20057;-69
2023/10/20 07:15:29;;;;;;;4.65;2.25;;;;;;;;;;5009283;28;20495;-70
2023/10/20 07:17:55;;;;;;;8.23;3.17;;;;;;;;;;5006885;28;20528;-71
2023/10/20 07:20:21;;;;;;;4.88;1.90;;;;;;;;;;5008342;28;20594;-67
2023/10/20 07:22:47;;;;;;;5.93;2.08;;;;;;;;;;5009740;28;20436;-73
2023/10/20 07:25:13;;;;;;;6.72;2.33;;;;;;;;;;5009449;28;20996;-72
2023/10/20 07:27:40;;;;;;;6.18;2.30;;;;;;;;;;4989161;28;20041;-69
2023/10/20 07:30:10;;;;;;;5.28;1.95;;;;;;;;;;5009033;28;20026;-69
2023/10/20 07:32:36;;;;;;;4.75;2.03;;;;;;;;;;5009085;28;20026;-72
2023/10/20 07:35:03;;;;;;;4.50;2.00;;;;;;;;;;5008613;28;20029;-71
2023/10/20 07:37:29;;;;;;;5.72;2.10;;;;;;;;;;5007154;28;20036;-72
2023/10/20 07:39:56;;;;;;;3.88;2.08;;;;;;;;;;5008846;28;20395;-70
2023/10/20 07:42:22;;;;;;;5.78;2.42;;;;;;;;;;5006309;28;20084;-72
2023/10/20 07:44:48;;;;;;;5.15;2.30;;;;;;;;;;5008852;28;20037;-69
2023/10/20 07:47:14;;;;;;;6.75;2.10;;;;;;;;;;5006002;28;20038;-70
2023/10/20 07:49:40;;;;;;;3.55;1.73;;;;;;;;;;5008498;28;20034;-71
2023/10/20 07:52:07;;;;;;;5.53;2.65;;;;;;;;;;5009174;28;20780;-73
2023/10/20 07:54:33;;;;;;;5.60;2.35;;;;;;;;;;5007891;28;20029;-72
2023/10/20 07:56:59;;;;;;;7.00;3.05;;;;;;;;;;5008248;28;20040;-71
2023/10/20 07:59:25;;;;;;;7.80;2.90;;;;;;;;;;5008483;28;20083;-73
2023/10/20 08:01:51;;;;;;;4.70;2.10;;;;;;;;;;5007005;28;20057;-68
2023/10/20 08:04:17;;;;;;;6.00;2.50;;;;;;;;;;5004765;28;20033;-66
2023/10/20 08:06:43;;;;;;;6.40;2.85;;;;;;;;;;5006710;28;20046;-71
2023/10/20 08:09:11;;;;;;;7.72;2.85;;;;;;;;;;5006035;28;20041;-75
2023/10/20 08:11:38;;;;;;;7.40;2.55;;;;;;;;;;5008135;28;20037;-69
2023/10/20 08:14:05;;;;;;;6.57;2.60;;;;;;;;;;5007175;28;20057;-69
2023/10/20 08:16:31;;;;;;;5.10;2.70;;;;;;;;;;5007972;28;20035;-70
2023/10/20 08:18:57;;;;;;;5.07;2.40;;;;;;;;;;5008746;28;20029;-70
2023/10/20 08:21:29;;;;;;;6.90;2.95;;;;;;;;;;5005866;28;20038;-73
2023/10/20 08:23:59;;;;;;;4.93;2.42;;;;;;;;;;5004434;28;20033;-72
2023/10/20 08:26:25;;;;;;;9.38;2.42;;;;;;;;;;5008074;28;20036;-72
2023/10/20 08:28:51;;;;;;;5.50;2.40;;;;;;;;;;5007921;28;20049;-74
2023/10/20 08:31:17;;;;;;;3.80;1.90;;;;;;;;;;5007556;28;20045;-70
2023/10/20 08:33:44;;;;;;;4.78;2.38;;;;;;;;;;5004980;28;20052;-70
2023/10/20 08:36:11;;;;;;;5.55;2.20;;;;;;;;;;5007381;28;20029;-70
2023/10/20 08:38:37;;;;;;;5.10;2.40;;;;;;;;;;5007762;28;20022;-66
2023/10/20 08:41:08;;;;;;;4.10;2.20;;;;;;;;;;5008127;28;21031;-72
2023/10/20 08:43:34;;;;;;;4.50;1.70;;;;;;;;;;5008571;28;20030;-69
2023/10/20 08:46:00;;;;;;;3.85;1.80;;;;;;;;;;5008129;28;20717;-72
2023/10/20 08:48:27;;;;;;;3.67;1.67;;;;;;;;;;5008327;28;20088;-69
2023/10/20 08:50:54;;;;;;;6.35;1.95;;;;;;;;;;5008554;28;20042;-71
2023/10/20 08:53:21;;;;;;;6.55;2.50;;;;;;;;;;5008490;28;20518;-69
2023/10/20 08:55:48;;;;;;;5.22;2.00;;;;;;;;;;5007313;28;20018;-70
2023/10/20 08:58:14;;;;;;;4.82;2.00;;;;;;;;;;5008336;28;20060;-71
2023/10/20 09:00:40;;;;;;;6.78;1.73;;;;;;;;;;5007113;28;20920;-71
2023/10/20 09:03:06;;;;;;;4.03;1.52;;;;;;;;;;5007809;28;20477;-71
2023/10/20 09:05:32;;;;;;;4.45;2.08;;;;;;;;;;5008855;28;20830;-70
2023/10/20 09:08:00;;;;;;;3.40;1.58;;;;;;;;;;5007516;28;20065;-72
2023/10/20 09:10:26;;;;;;;3.67;1.50;;;;;;;;;;5008206;28;20156;-67
2023/10/20 09:12:52;;;;;;;4.70;1.90;;;;;;;;;;5007874;28;20026;-69
2023/10/20 09:15:19;;;;;;;3.20;1.50;;;;;;;;;;5005339;28;20033;-64
2023/10/20 09:17:52;;;;;;;3.55;1.58;;;;;;;;;;5012133;28;20030;-69
2023/10/20 09:20:20;;;;;;;4.85;1.77;;;;;;;;;;5011292;28;20033;-69
2023/10/20 09:22:46;;;;;;;4.60;1.80;;;;;;;;;;5008145;28;20025;-67
2023/10/20 09:25:12;;;;;;;10.52;2.67;;;;;;;;;;5011820;28;20785;-69
2023/10/20 09:27:39;;;;;;;4.03;1.55;;;;;;;;;;5010598;28;20057;-68
2023/10/20 09:30:09;;;;;;;4.53;1.80;;;;;;;;;;5009783;28;20026;-69
2023/10/20 09:32:38;;;;;;;2.78;1.38;;;;;;;;;;5011114;28;20025;-69
2023/10/20 09:35:05;;;;;;;5.30;1.70;;;;;;;;;;5011027;28;20029;-67
2023/10/20 09:37:31;;;;;;;4.50;1.55;;;;;;;;;;5011322;28;20398;-68
2023/10/20 09:40:05;;;;;;;3.80;1.35;;;;;;;;;;5010605;28;21674;-68
2023/10/20 09:42:36;;;;;;;4.15;1.33;;;;;;;;;;5010733;28;20112;-68
2023/10/20 09:45:09;;;;;;;3.53;1.38;;;;;;;;;;5011492;28;20674;-68
2023/10/20 09:47:36;;;;;;;3.42;1.13;;;;;;;;;;5010612;28;21776;-68
2023/10/20 09:50:02;;;;;;;4.07;1.25;;;;;;;;;;5009908;28;20044;-67
2023/10/20 09:52:29;;;;;;;4.03;1.00;;;;;;;;;;5009789;28;20080;-66
2023/10/20 09:54:56;;;;;;;3.55;1.15;;;;;;;;;;5011395;28;20029;-67
2023/10/20 09:57:23;;;;;;;2.72;0.90;;;;;;;;;;5027348;28;20029;-62
2023/10/20 09:59:54;;;;;;;2.15;1.02;;;;;;;;;;5010813;28;20033;-67
2023/10/20 10:02:27;;;;;;;3.03;1.20;;;;;;;;;;5011328;28;20155;-64
2023/10/20 10:04:54;;;;;;;2.80;0.90;;;;;;;;;;5010387;28;20079;-64
2023/10/20 10:07:32;;;;;;;2.90;1.17;;;;;;;;;;5010647;28;20033;-68
2023/10/20 10:09:58;;;;;;;4.00;1.10;;;;;;;;;;5008477;28;20605;-70
2023/10/20 10:12:27;;;;;;;2.38;1.00;;;;;;;;;;5010031;28;20099;-68
2023/10/20 10:14:59;;;;;;;2.65;1.10;;;;;;;;;;5009937;28;20049;-68
2023/10/20 10:17:26;;;;;;;2.65;1.10;;;;;;;;;;5009495;28;20060;-69
2023/10/20 10:19:53;;;;;;;3.78;1.10;;;;;;;;;;5010218;28;20150;-67
2023/10/20 10:22:26;;;;;;;2.22;0.90;;;;;;;;;;5009497;28;20040;-65
2023/10/20 10:24:54;;;;;;;2.20;0.95;;;;;;;;;;5010512;28;20025;-66
2023/10/20 10:27:22;;;;;;;5.70;1.17;;;;;;;;;;5009339;28;20037;-63
2023/10/20 10:30:01;;;;;;;4.50;1.27;;;;;;;;;;5009308;28;20081;-68
2023/10/20 10:32:31;;;;;;;2.72;1.00;;;;;;;;;;5009076;28;20112;-67
2023/10/20 10:34:58;;;;;;;2.28;0.90;;;;;;;;;;5008884;28;20695;-67
2023/10/20 10:37:29;;;;;;;3.83;1.20;;;;;;;;;;5008725;28;20033;-67
2023/10/20 10:40:07;;;;;;;2.38;0.80;;;;;;;;;;5009593;28;20030;-68
2023/10/20 10:42:38;;;;;;;2.38;0.68;;;;;;;;;;5009208;28;20025;-66
2023/10/20 10:45:13;;;;;;;4.55;0.95;;;;;;;;;;5010296;28;20036;-66
2023/10/20 10:47:39;;;;;;;4.70;0.90;;;;;;;;;;5008611;28;20413;-65
2023/10/20 10:50:06;;;;;;;2.05;0.95;;;;;;;;;;5008860;28;20034;-64
2023/10/20 10:52:34;;;;;;;2.53;0.75;;;;;;;;;;5009616;28;20085;-66
2023/10/20 10:55:01;;;;;;;2.92;1.00;;;;;;;;;;5007314;28;20045;-66
2023/10/20 10:57:27;;;;;;;2.83;0.80;;;;;;;;;;5009643;28;20133;-64
2023/10/20 10:59:53;;;;;;;1.20;0.65;;;;;;;;;;5009985;28;20084;-65
2023/10/20 11:02:20;;;;;;;1.27;0.70;;;;;;;;;;5009410;28;20040;-67
2023/10/20 11:04:47;;;;;;;2.95;0.98;;;;;;;;;;5009355;28;20060;-66
2023/10/20 11:07:13;;;;;;;1.70;0.68;;;;;;;;;;5010132;28;20030;-66
2023/10/20 11:09:40;;;;;;;3.08;0.68;;;;;;;;;;5008721;28;20060;-65
2023/10/20 11:12:08;;;;;;;1.42;0.63;;;;;;;;;;5008740;28;20034;-65
2023/10/20 11:14:34;;;;;;;1.35;0.60;;;;;;;;;;5009440;28;20061;-65
2023/10/20 11:17:04;;;;;;;1.88;0.70;;;;;;;;;;5008769;28;20036;-65
2023/10/20 11:19:30;;;;;;;2.60;0.80;;;;;;;;;;5009213;28;20026;-63
2023/10/20 11:21:57;;;;;;;4.10;0.80;;;;;;;;;;5008922;28;20467;-63
2023/10/20 11:24:34;;;;;;;2.42;0.88;;;;;;;;;;5006414;28;20137;-61
2023/10/20 11:27:01;;;;;;;1.65;0.77;;;;;;;;;;5007927;28;20037;-65
2023/10/20 11:29:30;;;;;;;3.90;0.80;;;;;;;;;;5009407;28;20064;-64
2023/10/20 11:31:57;;;;;;;2.72;0.88;;;;;;;;;;5009162;28;20127;-66
2023/10/20 11:34:25;;;;;;;1.20;0.50;;;;;;;;;;5025257;28;20040;-61
2023/10/20 11:36:51;;;;;;;3.47;1.05;;;;;;;;;;5008581;28;20056;-65
2023/10/20 11:39:17;;;;;;;1.48;0.60;;;;;;;;;;5008398;28;20028;-65
2023/10/20 11:41:44;;;;;;;2.65;0.63;;;;;;;;;;5007302;28;20037;-65
2023/10/20 11:44:10;;;;;;;0.55;0.45;;;;;;;;;;5008634;28;20029;-66
2023/10/20 11:46:36;;;;;;;4.57;0.80;;;;;;;;;;5007497;28;20056;-65
2023/10/20 11:49:02;;;;;;;2.45;0.80;;;;;;;;;;5007284;28;20088;-65
2023/10/20 11:51:28;;;;;;;2.35;0.60;;;;;;;;;;5007468;28;20049;-65
2023/10/20 11:53:55;;;;;;;1.60;0.52;;;;;;;;;;5008141;28;20057;-64
2023/10/20 11:56:21;;;;;;;2.53;0.55;;;;;;;;;;5008823;28;20048;-65
2023/10/20 11:58:47;;;;;;;2.10;0.70;;;;;;;;;;5008435;28;20030;-65
2023/10/20 12:01:13;;;;;;;1.77;0.80;;;;;;;;;;5007906;28;20029;-65
2023/10/20 12:03:40;;;;;;;1.55;0.80;;;;;;;;;;5007721;28;20136;-64
2023/10/20 12:06:06;;;;;;;2.53;0.73;;;;;;;;;;5006888;28;20137;-65
2023/10/20 12:08:33;;;;;;;1.38;0.60;;;;;;;;;;5007275;28;20180;-65
2023/10/20 12:11:00;;;;;;;2.60;0.88;;;;;;;;;;5005964;28;20025;-65
2023/10/20 12:13:27;;;;;;;1.20;0.68;;;;;;;;;;5007314;28;20472;-64
2023/10/20 12:15:53;;;;;;;2.05;0.68;;;;;;;;;;5005749;28;20033;-64
2023/10/20 12:18:19;;;;;;;2.35;0.88;;;;;;;;;;5008226;28;20021;-62
2023/10/20 12:20:47;;;;;;;2.65;0.55;;;;;;;;;;5006871;28;20037;-61
2023/10/20 12:23:15;;;;;;;0.82;0.70;;;;;;;;;;5007828;28;20041;-66
2023/10/20 12:25:41;;;;;;;1.05;0.52;;;;;;;;;;5007336;28;20029;-66
2023/10/20 12:28:07;;;;;;;2.00;0.80;;;;;;;;;;5008004;28;20136;-63
2023/10/20 12:30:33;;;;;;;2.15;0.50;;;;;;;;;;5008458;28;20034;-66
2023/10/20 12:32:59;;;;;;;1.88;0.77;;;;;;;;;;5007824;28;20033;-66
2023/10/20 12:35:26;;;;;;;5.40;0.73;;;;;;;;;;5008649;28;20033;-67
2023/10/20 12:37:52;;;;;;;1.65;0.50;;;;;;;;;;5008476;28;20519;-66
2023/10/20 12:40:18;;;;;;;1.67;0.70;;;;;;;;;;5008327;28;20556;-64
2023/10/20 12:42:44;;;;;;;2.65;0.82;;;;;;;;;;5006631;28;20206;-65
2023/10/20 12:45:10;;;;;;;1.27;0.70;;;;;;;;;;5008499;28;20033;-68
2023/10/20 12:47:37;;;;;;;3.72;0.57;;;;;;;;;;5006254;28;20032;-66
2023/10/20 12:50:03;;;;;;;1.25;0.43;;;;;;;;;;5008936;28;20038;-66
2023/10/20 12:52:29;;;;;;;0.95;0.60;;;;;;;;;;5011738;28;20137;-61
2023/10/20 12:54:56;;;;;;;1.20;0.65;;;;;;;;;;5011719;28;20029;-66
2023/10/20 12:57:22;;;;;;;2.40;0.55;;;;;;;;;;5010832;28;20025;-67
2023/10/20 12:59:48;;;;;;;3.30;0.80;;;;;;;;;;5012041;28;20026;-65
2023/10/20 13:02:14;;;;;;;1.05;0.63;;;;;;;;;;5010904;28;20669;-66
2023/10/20 13:04:40;;;;;;;1.63;0.50;;;;;;;;;;5012026;28;20025;-65
2023/10/20 13:07:07;;;;;;;1.52;0.60;;;;;;;;;;5011610;28;20030;-65
2023/10/20 13:09:33;;;;;;;2.75;0.68;;;;;;;;;;5011805;28;20044;-62
2023/10/20 13:11:59;;;;;;;1.70;0.68;;;;;;;;;;5011776;28;20040;-66
2023/10/20 13:14:26;;;;;;;1.58;0.70;;;;;;;;;;5011103;28;20044;-66
2023/10/20 13:16:53;;;;;;;3.40;0.80;;;;;;;;;;5011512;28;20033;-66
2023/10/20 13:19:19;;;;;;;0.88;0.50;;;;;;;;;;5011060;28;20476;-66
2023/10/20 13:21:45;;;;;;;1.85;0.60;;;;;;;;;;5010224;28;20403;-66
2023/10/20 13:24:11;;;;;;;2.78;0.40;;;;;;;;;;5011124;28;20136;-65
2023/10/20 13:26:37;;;;;;;2.33;0.60;;;;;;;;;;5010808;28;20042;-64
2023/10/20 13:29:04;;;;;;;2.50;0.77;;;;;;;;;;5010782;28;20084;-66
2023/10/20 13:31:30;;;;;;;1.35;0.43;;;;;;;;;;5012121;28;20034;-62
2023/10/20 13:33:56;;;;;;;1.17;0.60;;;;;;;;;;5010079;28;20034;-63
2023/10/20 13:36:23;;;;;;;1.92;0.98;;;;;;;;;;5010902;28;20025;-66
2023/10/20 13:38:49;;;;;;;1.67;0.50;;;;;;;;;;5011211;28;20029;-61
2023/10/20 13:41:15;;;;;;;1.15;0.60;;;;;;;;;;5008624;28;20029;-64
2023/10/20 13:43:44;;;;;;;2.55;0.73;;;;;;;;;;5009765;28;20749;-66
2023/10/20 13:46:10;;;;;;;1.08;0.60;;;;;;;;;;5010563;28;20049;-65
2023/10/20 13:48:37;;;;;;;1.83;0.82;;;;;;;;;;5009518;28;20041;-64
2023/10/20 13:51:03;;;;;;;4.38;0.60;;;;;;;;;;5010270;28;20531;-65
2023/10/20 13:53:29;;;;;;;3.10;0.73;;;;;;;;;;5010777;28;20065;-65
2023/10/20 13:55:55;;;;;;;2.92;0.70;;;;;;;;;;5010872;28;20060;-66
2023/10/20 13:58:21;;;;;;;1.35;0.52;;;;;;;;;;5009878;28;21014;-66
2023/10/20 14:00:49;;;;;;;2.42;0.73;;;;;;;;;;5009532;28;20076;-64
2023/10/20 14:03:15;;;;;;;2.55;0.50;;;;;;;;;;5009020;28;20044;-65
2023/10/20 14:05:51;;;;;;;1.63;0.57;;;;;;;;;;5010088;28;20713;-65
2023/10/20 14:08:17;;;;;;;2.97;0.60;;;;;;;;;;5009896;28;20704;-66
2023/10/20 14:10:43;;;;;;;1.95;0.70;;;;;;;;;;5010037;28;20068;-65
2023/10/20 14:13:10;;;;;;;1.27;0.65;;;;;;;;;;5009431;28;20029;-66
2023/10/20 14:15:36;;;;;;;2.15;0.73;;;;;;;;;;5009650;28;20030;-65
2023/10/20 14:18:02;;;;;;;1.55;0.63;;;;;;;;;;5008538;28;20665;-66
2023/10/20 14:20:31;;;;;;;1.70;0.60;;;;;;;;;;5008078;28;20129;-64
2023/10/20 14:22:57;;;;;;;0.50;0.40;;;;;;;;;;5008987;28;20038;-64
2023/10/20 14:25:23;;;;;;;0.93;0.55;;;;;;;;;;5008485;28;20045;-64
2023/10/20 14:27:49;;;;;;;1.98;0.50;;;;;;;;;;5008573;28;20045;-64
2023/10/20 14:30:15;;;;;;;2.38;0.70;;;;;;;;;;5009951;28;20029;-65
2023/10/20 14:32:41;;;;;;;1.73;0.73;;;;;;;;;;5009912;28;20042;-66
2023/10/20 14:35:07;;;;;;;3.22;0.70;;;;;;;;;;5009537;28;20040;-65
2023/10/20 14:37:33;;;;;;;2.85;0.50;;;;;;;;;;5009385;28;20506;-65
2023/10/20 14:39:59;;;;;;;1.25;0.50;;;;;;;;;;5009647;28;20026;-63
2023/10/20 14:42:25;;;;;;;1.20;0.52;;;;;;;;;;5009377;28;20033;-65
2023/10/20 14:44:52;;;;;;;2.05;0.40;;;;;;;;;;5009364;28;20033;-65
2023/10/20 14:47:18;;;;;;;3.38;0.40;;;;;;;;;;5008073;28;20048;-66
2023/10/20 14:49:44;;;;;;;4.25;0.60;;;;;;;;;;5009744;28;20041;-66
2023/10/20 14:52:12;;;;;;;2.08;0.63;;;;;;;;;;5009347;28;20050;-65
2023/10/20 14:54:39;;;;;;;2.63;0.60;;;;;;;;;;5009320;28;20026;-65
2023/10/20 14:57:05;;;;;;;1.13;0.40;;;;;;;;;;5009696;28;20073;-66
2023/10/20 14:59:31;;;;;;;0.82;0.35;;;;;;;;;;5009467;28;20076;-63
2023/10/20 15:01:57;;;;;;;1.25;0.40;;;;;;;;;;5008782;28;20657;-65
2023/10/20 15:04:25;;;;;;;1.48;0.60;;;;;;;;;;5009661;28;20038;-64
2023/10/20 15:06:51;;;;;;;0.60;0.38;;;;;;;;;;5009645;28;20550;-66
2023/10/20 15:09:17;;;;;;;0.77;0.30;;;;;;;;;;5008934;28;20088;-60
2023/10/20 15:11:43;;;;;;;4.05;0.50;;;;;;;;;;5009448;28;21320;-65